Heidelberg, Germany
Current Conditions -  °F | °C
As of 6:20 PM on Thursday 30 Oct 2014 (Local Time) from EDFM Reporting Station
Broken Clouds Broken Clouds  
Wind Chill: 57°   Ceiling: 4000
Heat Index: 57°   Visibility: 5mi
Dew Point: 54°   Wind: 1mph
Humidity: 88%   Direction: NA
Pressure: 30.27"   Gusts: NA
Location:  49.4°N, 8.68°E
Report Text: EDFM 301720Z VRB01KT 8000 BKN040 14/12 Q1025
Loading
Personal Weather Stations






























Interactive Weather Map New forecast layout! Learn more

10-Day Weather Forecast

Advertisements
Track Severe Weather on mobile